Hill Air Force Base, UT (84056)

7:48 PM MDT on October 21, 2014 (GMT -0600)
Buena Vista | Change Station
CLOSE
Current Station
Personal Weather Station
Location: Sunset, UT
Elevation: 4510 ft
Nearby Weather Stations

Elev 4510 ft 41.13 °N, 112.03 °W | Updated 12 minutes ago

Overcast
Overcast
49.1 °F
Feels Like 49 °F
N
1.1
Wind Variable Wind from ENE

Today
High -- | Low -- °F
--% Chance of Precip.
Yesterday
High -- | Low -- °F
Precip. -- in
7:46 AM 6:38 PM
Waning Crescent, 3% visible
Pressure 29.93 in
Visibility 10.0 miles
Clouds Few 11000 ft
Overcast 14000 ft
Windchill 49 °F
Dew Point 31 °F
Humidity 50%
Rainfall 0.00 in
Snow Depth 0 in , 0 in , 0 in
UV 0 out of 12
Pollen 2.10 out of 12
PM2.5 Good
Flu Activity Sporadic
METAR KHIF 220058Z AUTO 30002KT 10SM FEW110 OVC140 12/M03 A3004 RMK AO2 SLP135 T01241026

More Conditions Fewer Conditions

Pressure 29.93 in
Visibility 10.0 miles
Clouds Few 11000 ft
Overcast 14000 ft
Windchill 49 °F
Dew Point 31 °F
Humidity 50%
Rainfall 0.00 in
Snow Depth 0 in , 0 in , 0 in
UV 0 out of 12
Pollen 2.10 out of 12
PM2.5 Good
Flu Activity Sporadic
METAR KHIF 220058Z AUTO 30002KT 10SM FEW110 OVC140 12/M03 A3004 RMK AO2 SLP135 T01241026

More Conditions Fewer Conditions

10-Day Weather Forecast

Almanac

Astronomy

Oct. 21, 2014 Rise Set
Actual Time 7:46 AM MDT 6:38 PM MDT
Civil Twilight 7:18 AM MDT 7:06 PM MDT
Nautical Twilight 6:46 AM MDT 7:38 PM MDT
Astronomical Twilight 6:14 AM MDT 8:10 PM MDT
Moon 5:32 AM MDT (10/21) 5:35 PM MDT (10/21)
Length of Visible Light 11h 47m
Length of Day
10h 51m
Tomorrow will be 2m 34s shorter.
Waning Crescent, 3% of the Moon is Illuminated
Today
Waning Crescent
Oct 23
New
Oct 30
First Quarter
Nov 6
Full
Nov 14
Last Quarter

Today's Extremes

State Highs State Lows

Community

WunderPhotos

Upload Photos

1,763,843 photos uploaded!

Nearby

Air Quality

  Air Quality AQ Index Pollutant
Yesterday Good
PM10
Yesterday Good
OZONE
Current Good
PM2.5
Tuesday Good
OZONE
Wednesday Good
OZONE
Thursday Good
OZONE

Snow Depth

Station Depth Elevation
Farmington 0 in 8000 ft
Parrish Creek 0 in 7740 ft
Ben Lomond Peak 0 in 8000 ft
Ben Lomond Trail 0 in 6000 ft
Little Bear 0 in 6550 ft

Earthquake Activity

City Distance Mag. Time & Date
No recent earthquake activity has been reported nearby.
Minimum magnitude displayed is 2.5.

Coastal Water Temperatures

Place Temperature
No Stations Reporting

Nearby Weather Stations